Time;durP1;ratioP1;P1;durP2;ratioP2;P2;SDS_P1;SDS_P2;PMS_P1;PMS_P2;Temp;Humidity;BMP_temperature;BMP_pressure;BME280_temperature;BME280_humidity;BME280_pressure;Samples;Min_cycle;Max_cycle;Signal;HPM_P1;HPM_P2
2023/05/23 04:25:19;;;;;;;27.58;16.67;;;16.70;99.90;;;;;;6258005;22;20518;-95
2023/05/23 04:28:06;;;;;;;26.25;16.77;;;16.80;99.90;;;;;;6241270;22;20000;-94
2023/05/23 05:08:09;;;;;;;25.67;22.85;;;21.10;99.90;;;;;;6249544;22;20016;-95
2023/05/23 05:26:22;;;;;;;32.13;28.98;;;25.30;99.90;;;;;;6209065;22;20011;-92
2023/05/23 05:32:54;;;;;;;;;;;;;;;;;;;;;
2023/05/23 05:36:28;;;;;;;32.05;28.83;;;26.20;99.90;;;;;;6032235;23;20015;-94
2023/05/23 05:38:58;;;;;;;33.42;29.55;;;25.80;99.90;;;;;;5975853;24;20009;-93
2023/05/23 05:41:38;;;;;;;32.00;28.85;;;25.10;99.90;;;;;;6004338;24;20076;-94
2023/05/23 05:44:07;;;;;;;31.75;28.50;;;24.80;99.90;;;;;;5981778;24;20007;-93
2023/05/23 05:49:35;;;;;;;31.08;27.00;;;24.90;99.90;;;;;;6256695;23;20084;-94
2023/05/23 05:52:06;;;;;;;33.67;28.25;;;24.40;99.90;;;;;;6229039;23;20132;-93
2023/05/23 05:55:22;;;;;;;29.13;26.08;;;25.30;99.90;;;;;;6213212;23;20007;-93
2023/05/23 05:58:40;;;;;;;30.67;27.73;;;25.10;99.90;;;;;;6153505;23;20092;-94
2023/05/23 06:01:26;;;;;;;31.50;28.00;;;25.60;99.90;;;;;;6172006;23;20014;-93
2023/05/23 06:07:19;;;;;;;30.40;27.30;;;25.20;99.90;;;;;;6268051;22;20064;-93
2023/05/23 06:17:51;;;;;;;31.80;27.42;;;25.40;99.90;;;;;;6146545;23;20025;-92
2023/05/23 06:20:51;;;;;;;;;;;;;;;;;;;;;
2023/05/23 06:39:31;;;;;;;27.25;24.80;;;27.00;99.90;;;;;;5704890;25;20028;-93
2023/05/23 09:33:13;;;;;;;27.95;26.00;;;27.20;99.90;;;;;;6256479;22;20460;-95
2023/05/23 09:35:45;;;;;;;28.05;26.15;;;27.20;99.90;;;;;;6240703;22;20019;-93
2023/05/23 09:38:11;;;;;;;27.83;26.13;;;27.20;99.90;;;;;;6255533;22;20004;-93
2023/05/23 09:41:02;;;;;;;27.70;25.90;;;27.50;99.90;;;;;;6219315;23;20463;-94
2023/05/23 09:43:29;;;;;;;28.23;26.33;;;27.10;99.90;;;;;;6219708;23;20011;-94
2023/05/23 09:46:06;;;;;;;29.13;27.00;;;27.10;99.90;;;;;;6170289;23;20012;-93
2023/05/23 09:48:33;;;;;;;29.10;26.77;;;27.10;99.90;;;;;;6170438;23;20525;-94
2023/05/23 09:51:08;;;;;;;28.63;26.58;;;27.60;99.90;;;;;;6170889;23;20013;-94
2023/05/23 09:53:35;;;;;;;28.15;26.05;;;27.10;99.90;;;;;;6171611;23;20095;-93
2023/05/23 09:56:06;;;;;;;26.77;24.95;;;26.80;99.90;;;;;;6172296;23;20001;-94
2023/05/23 09:58:35;;;;;;;26.17;24.30;;;26.70;99.90;;;;;;6170792;23;20009;-94
2023/05/23 10:01:08;;;;;;;27.33;25.33;;;26.30;99.90;;;;;;6170259;23;20013;-94
2023/05/23 10:03:49;;;;;;;27.40;25.30;;;26.30;99.90;;;;;;6171396;23;20008;-93
2023/05/23 10:06:35;;;;;;;26.90;24.95;;;26.40;99.90;;;;;;6171530;23;20087;-93
2023/05/23 10:09:07;;;;;;;26.98;24.80;;;26.90;99.90;;;;;;6175827;23;20108;-94
2023/05/23 10:11:34;;;;;;;26.40;24.52;;;27.00;99.90;;;;;;6199111;22;20030;-94
2023/05/23 10:14:11;;;;;;;26.67;24.73;;;26.90;99.90;;;;;;6229669;22;20090;-94
2023/05/23 10:16:49;;;;;;;27.48;25.08;;;26.80;99.90;;;;;;6229439;22;20030;-94
2023/05/23 10:19:25;;;;;;;27.20;25.15;;;26.90;99.90;;;;;;6229086;22;20094;-94
2023/05/23 10:22:02;;;;;;;27.20;24.83;;;26.50;99.90;;;;;;6228419;22;20044;-93
2023/05/23 10:24:29;;;;;;;27.08;25.15;;;26.40;99.90;;;;;;6254002;22;20003;-94
2023/05/23 10:27:20;;;;;;;26.35;24.30;;;26.30;99.90;;;;;;6254972;22;20004;-93
2023/05/23 10:29:50;;;;;;;26.45;24.38;;;26.30;99.90;;;;;;6254836;22;20034;-93
2023/05/23 10:32:18;;;;;;;25.73;24.02;;;26.50;99.90;;;;;;6250135;22;20018;-93
2023/05/23 10:35:06;;;;;;;26.77;24.85;;;26.80;99.90;;;;;;6252720;22;20000;-94
2023/05/23 10:37:58;;;;;;;26.45;24.30;;;26.90;99.90;;;;;;6234919;22;20008;-95
2023/05/23 10:40:52;;;;;;;27.08;25.17;;;27.00;99.90;;;;;;6232995;22;20011;-94
2023/05/23 10:43:30;;;;;;;26.83;24.77;;;27.10;99.90;;;;;;6231436;22;20016;-94
2023/05/23 10:45:57;;;;;;;26.80;24.90;;;27.00;99.90;;;;;;6255536;22;20091;-95
2023/05/23 10:48:42;;;;;;;26.45;24.58;;;27.00;99.90;;;;;;6231992;22;20083;-94
2023/05/23 10:51:10;;;;;;;26.20;24.40;;;27.30;99.90;;;;;;6256613;22;20004;-94
2023/05/23 10:53:45;;;;;;;25.88;24.08;;;27.50;99.90;;;;;;6231861;22;20425;-93
2023/05/23 10:56:22;;;;;;;26.05;24.25;;;27.10;99.90;;;;;;6232107;22;20460;-94
2023/05/23 10:58:54;;;;;;;26.15;24.15;;;26.70;99.90;;;;;;6233948;22;20008;-94
2023/05/23 11:01:22;;;;;;;26.83;24.52;;;26.50;99.90;;;;;;6232741;22;20050;-94
2023/05/23 11:03:55;;;;;;;24.98;23.08;;;26.60;99.90;;;;;;6233242;22;20003;-94
2023/05/23 11:06:37;;;;;;;25.30;23.20;;;26.50;99.90;;;;;;6258184;22;20007;-93
2023/05/23 11:09:17;;;;;;;25.85;23.80;;;26.60;99.90;;;;;;6230742;22;20011;-93
2023/05/23 11:11:53;;;;;;;26.38;24.10;;;26.60;99.90;;;;;;6233466;22;20008;-93
2023/05/23 11:14:59;;;;;;;;;;;;;;;;;;;;;
2023/05/23 11:17:56;;;;;;;25.35;23.52;;;26.80;99.90;;;;;;6296809;22;20027;-94
2023/05/23 11:20:35;;;;;;;25.23;23.38;;;26.90;99.90;;;;;;6270838;22;20548;-95
2023/05/23 11:23:12;;;;;;;25.00;23.25;;;26.80;99.90;;;;;;6245983;22;20047;-94
2023/05/23 11:25:54;;;;;;;23.92;22.15;;;26.60;99.90;;;;;;6271317;22;20027;-93
2023/05/23 11:28:26;;;;;;;25.08;23.15;;;26.80;99.90;;;;;;6245839;22;20079;-93
2023/05/23 11:31:12;;;;;;;24.38;22.38;;;26.60;99.90;;;;;;6271023;22;20004;-94
2023/05/23 11:33:56;;;;;;;24.50;22.42;;;26.20;99.90;;;;;;6250983;22;20016;-94
2023/05/23 11:37:03;;;;;;;24.50;22.67;;;26.10;99.90;;;;;;6235026;23;19988;-94
2023/05/23 11:39:52;;;;;;;24.00;22.30;;;26.60;99.90;;;;;;6195069;23;20020;-92
2023/05/23 11:42:19;;;;;;;25.80;22.95;;;26.60;99.90;;;;;;6169256;23;20020;-93
2023/05/23 11:45:02;;;;;;;;;;;;;;;;;;;;;
2023/05/23 11:47:57;;;;;;;23.92;21.77;;;26.10;99.90;;;;;;6274670;22;20039;-94
2023/05/23 11:50:45;;;;;;;23.55;21.75;;;26.30;99.90;;;;;;6263169;22;20004;-95
2023/05/23 11:53:19;;;;;;;24.08;22.40;;;26.10;99.90;;;;;;6258614;22;20038;-94
2023/05/23 11:55:54;;;;;;;23.42;21.63;;;25.90;99.90;;;;;;6230284;23;20023;-94
2023/05/23 12:34:22;;;;;;;23.65;21.88;;;25.60;99.90;;;;;;6204345;22;20914;-95
2023/05/23 15:06:51;;;;;;;24.77;22.65;;;25.60;99.90;;;;;;6219539;22;20046;-94
2023/05/23 15:09:18;;;;;;;25.25;22.95;;;25.60;99.90;;;;;;6253856;22;20046;-94
2023/05/23 16:48:34;;;;;;;23.48;21.40;;;24.70;99.90;;;;;;6278461;22;20020;-93
2023/05/23 16:59:40;;;;;;;23.83;22.20;;;24.40;99.90;;;;;;6263387;23;20024;-93
2023/05/23 17:02:10;;;;;;;24.77;22.30;;;24.30;99.90;;;;;;6231364;23;20016;-93
2023/05/23 17:04:36;;;;;;;24.17;22.08;;;24.20;99.90;;;;;;6215143;22;19992;-94
2023/05/23 17:07:04;;;;;;;24.67;22.52;;;24.10;99.90;;;;;;6207896;23;20008;-93
2023/05/23 17:09:31;;;;;;;23.35;21.55;;;24.10;99.90;;;;;;6205610;23;20059;-93
2023/05/23 17:11:57;;;;;;;24.45;22.33;;;24.00;99.90;;;;;;6223178;23;20022;-93
2023/05/23 17:14:39;;;;;;;23.70;21.80;;;23.80;99.90;;;;;;6207384;23;20000;-94
2023/05/23 17:18:10;;;;;;;;;;;;;;;;;;;;;
2023/05/23 17:21:09;;;;;;;26.08;23.88;;;23.60;99.90;;;;;;6081200;23;20011;-93
2023/05/23 17:55:39;;;;;;;28.02;25.73;;;22.20;99.90;;;;;;6244195;22;20083;-94
2023/05/23 18:36:07;;;;;;;22.45;19.88;;;20.30;99.90;;;;;;5862274;22;8766049;-93
2023/05/23 18:48:13;;;;;;;21.08;17.90;;;19.80;99.90;;;;;;6286974;22;20396;-94
2023/05/23 18:50:44;;;;;;;20.67;17.65;;;19.70;99.90;;;;;;6199495;22;20012;-94
2023/05/23 18:53:18;;;;;;;23.65;18.63;;;19.70;99.90;;;;;;6229407;23;20019;-93
2023/05/23 18:55:49;;;;;;;19.63;17.58;;;19.60;99.90;;;;;;6236582;23;20058;-93
2023/05/23 18:58:18;;;;;;;20.35;18.25;;;19.60;99.90;;;;;;6250586;23;20008;-95
2023/05/23 19:00:45;;;;;;;23.70;18.92;;;19.50;99.90;;;;;;6168649;23;20009;-94
2023/05/23 19:03:11;;;;;;;20.95;18.13;;;19.40;99.90;;;;;;6162526;23;20017;-93
2023/05/23 19:05:43;;;;;;;22.10;17.45;;;19.40;99.90;;;;;;6165265;23;20024;-96
2023/05/23 19:08:13;;;;;;;23.00;17.45;;;19.30;99.90;;;;;;6143680;23;20064;-93
2023/05/23 19:10:40;;;;;;;19.40;17.45;;;19.20;99.90;;;;;;6146336;23;20482;-95
2023/05/23 19:13:13;;;;;;;27.10;17.00;;;19.20;99.90;;;;;;6167008;23;20005;-93
2023/05/23 19:19:02;;;;;;;21.48;17.00;;;19.10;99.90;;;;;;6295860;22;20079;-93
2023/05/23 19:25:36;;;;;;;19.73;16.48;;;19.10;99.90;;;;;;6080487;23;20038;-93
2023/05/23 19:31:55;;;;;;;20.17;17.60;;;19.00;99.90;;;;;;6114761;23;20033;-94
2023/05/23 19:57:58;;;;;;;27.73;18.55;;;18.60;99.90;;;;;;6275196;22;20026;-94
2023/05/23 20:00:41;;;;;;;24.45;18.50;;;18.60;99.90;;;;;;6235110;22;20035;-94
2023/05/23 20:03:20;;;;;;;30.27;17.38;;;18.60;99.90;;;;;;6253814;22;20375;-96
2023/05/23 20:05:56;;;;;;;22.08;18.60;;;18.50;99.90;;;;;;6258672;22;20012;-95
2023/05/23 20:08:44;;;;;;;22.60;17.52;;;18.50;99.90;;;;;;6255930;22;20031;-95
2023/05/23 20:14:56;;;;;;;18.60;15.75;;;18.50;99.90;;;;;;6208497;22;20004;-94
2023/05/23 20:18:26;;;;;;;24.13;16.90;;;18.40;99.90;;;;;;6179739;23;20060;-94
2023/05/23 20:20:53;;;;;;;25.38;17.10;;;18.40;99.90;;;;;;6177080;22;20016;-94
2023/05/23 20:23:20;;;;;;;26.60;18.20;;;18.30;99.90;;;;;;6232495;22;20008;-93
2023/05/23 20:25:47;;;;;;;24.33;17.58;;;18.30;99.90;;;;;;6227942;22;20061;-94
2023/05/23 20:28:20;;;;;;;25.02;18.30;;;18.20;99.90;;;;;;6229518;22;20012;-94
2023/05/23 20:31:02;;;;;;;27.95;17.08;;;18.20;99.90;;;;;;6231835;22;20114;-94
2023/05/23 20:33:33;;;;;;;22.55;16.75;;;18.20;99.90;;;;;;6227501;22;20440;-94
2023/05/23 20:36:00;;;;;;;23.95;18.85;;;18.10;99.90;;;;;;6227989;22;20018;-93
2023/05/23 20:38:27;;;;;;;27.73;18.52;;;18.00;99.90;;;;;;6253347;22;20007;-94
2023/05/23 20:41:04;;;;;;;23.05;17.70;;;18.10;99.90;;;;;;6253700;22;20004;-93
2023/05/23 20:44:32;;;;;;;20.73;17.63;;;18.00;99.90;;;;;;6261749;22;20045;-94
2023/05/23 20:47:28;;;;;;;24.17;18.08;;;18.00;99.90;;;;;;6261876;22;20015;-95
2023/05/23 20:50:05;;;;;;;28.67;19.58;;;17.90;99.90;;;;;;6228543;22;20011;-95
2023/05/23 20:52:42;;;;;;;24.02;18.42;;;17.90;99.90;;;;;;6258858;22;20015;-93
2023/05/23 20:55:09;;;;;;;25.92;17.80;;;17.80;99.90;;;;;;6251689;22;20290;-94
2023/05/23 20:57:35;;;;;;;25.73;17.80;;;17.80;99.90;;;;;;6225565;22;20008;-93
2023/05/23 21:00:12;;;;;;;23.27;17.60;;;17.80;99.90;;;;;;6225468;22;20004;-94
2023/05/23 21:02:40;;;;;;;23.52;18.13;;;17.80;99.90;;;;;;6250860;22;20055;-93
2023/05/23 21:05:08;;;;;;;28.02;19.20;;;17.80;99.90;;;;;;6252678;22;20023;-94
2023/05/23 21:07:36;;;;;;;24.48;18.25;;;17.70;99.90;;;;;;6228820;22;20007;-93
2023/05/23 21:10:03;;;;;;;28.27;18.52;;;17.70;99.90;;;;;;6227156;22;20004;-93
2023/05/23 21:17:41;;;;;;;25.42;17.55;;;17.60;99.90;;;;;;6274346;22;20027;-95
2023/05/23 21:20:14;;;;;;;22.20;17.10;;;17.60;99.90;;;;;;6229406;22;20004;-95
2023/05/23 21:23:02;;;;;;;26.92;17.52;;;17.60;99.90;;;;;;6234728;22;20027;-95
2023/05/23 21:25:51;;;;;;;40.25;22.25;;;17.60;99.90;;;;;;6240114;22;20434;-96
2023/05/23 21:28:32;;;;;;;53.15;28.23;;;17.60;99.90;;;;;;6234768;22;20015;-94
2023/05/23 21:31:02;;;;;;;80.45;33.72;;;17.60;99.90;;;;;;6232192;22;20004;-94
2023/05/23 21:33:55;;;;;;;120.28;45.88;;;17.60;99.90;;;;;;6250550;22;19996;-95
2023/05/23 21:36:54;;;;;;;138.15;57.33;;;17.60;99.90;;;;;;6160027;23;20009;-94
2023/05/23 21:50:57;;;;;;;117.97;44.75;;;17.40;99.90;;;;;;6263229;22;20058;-94
2023/05/23 21:53:49;;;;;;;100.78;44.42;;;17.40;99.90;;;;;;6135736;23;20038;-93
2023/05/23 21:56:15;;;;;;;101.53;41.65;;;17.20;99.90;;;;;;6078785;23;20022;-94
2023/05/23 21:58:42;;;;;;;89.20;38.90;;;17.20;99.90;;;;;;6079817;23;20009;-94
2023/05/23 22:01:08;;;;;;;89.72;38.15;;;17.10;99.90;;;;;;6077217;23;20088;-94
2023/05/23 22:03:35;;;;;;;76.40;36.60;;;17.10;99.90;;;;;;6077925;23;20017;-94
2023/05/23 22:06:01;;;;;;;88.75;37.10;;;17.00;99.90;;;;;;6077548;23;20010;-93
2023/05/23 22:08:31;;;;;;;68.97;33.47;;;17.00;99.90;;;;;;6078196;23;20108;-94
2023/05/23 22:11:03;;;;;;;65.18;29.10;;;16.90;99.90;;;;;;6078381;23;20093;-94
2023/05/23 22:13:29;;;;;;;55.92;27.48;;;16.80;99.90;;;;;;6077824;23;20089;-94
2023/05/23 22:15:57;;;;;;;46.65;26.35;;;16.70;99.90;;;;;;6077851;23;20013;-94
2023/05/23 22:18:25;;;;;;;53.70;26.83;;;16.70;99.90;;;;;;6079734;23;20010;-94
2023/05/23 22:20:52;;;;;;;45.00;26.27;;;16.70;99.90;;;;;;6079070;23;20002;-94
2023/05/23 22:23:19;;;;;;;43.50;25.70;;;16.70;99.90;;;;;;6112040;23;20020;-93
2023/05/23 22:25:46;;;;;;;44.90;25.25;;;16.70;99.90;;;;;;6222186;23;20000;-93
2023/05/23 22:28:13;;;;;;;44.53;24.70;;;16.70;99.90;;;;;;6197166;23;20008;-93
2023/05/23 22:30:40;;;;;;;41.50;24.65;;;16.70;99.90;;;;;;6196650;23;20519;-94
2023/05/23 22:33:11;;;;;;;45.22;24.48;;;16.70;99.90;;;;;;6196670;23;20004;-95
2023/05/23 22:35:40;;;;;;;47.10;24.35;;;16.70;99.90;;;;;;6196616;23;20054;-93
2023/05/23 22:38:08;;;;;;;33.17;22.50;;;16.80;99.90;;;;;;6197305;23;20011;-95
2023/05/23 22:40:36;;;;;;;46.35;24.25;;;16.70;99.90;;;;;;6196648;23;20012;-94
2023/05/23 22:43:06;;;;;;;40.28;23.25;;;16.70;99.90;;;;;;6198619;23;20115;-93
2023/05/23 22:45:48;;;;;;;40.65;24.23;;;16.60;99.90;;;;;;6196364;23;20016;-94
2023/05/23 22:48:18;;;;;;;40.00;22.73;;;16.50;99.90;;;;;;6196342;23;20012;-94
2023/05/23 22:50:45;;;;;;;41.15;22.55;;;16.40;99.90;;;;;;6195933;23;20008;-92
2023/05/23 22:53:23;;;;;;;36.50;22.45;;;16.40;99.90;;;;;;6197996;23;20022;-94
2023/05/23 22:55:53;;;;;;;46.42;22.33;;;16.30;99.90;;;;;;6223271;23;20090;-95
2023/05/23 22:58:19;;;;;;;41.85;23.45;;;16.20;99.90;;;;;;6196324;23;20022;-93
2023/05/23 23:00:46;;;;;;;36.25;23.15;;;16.20;99.90;;;;;;6196409;23;20423;-93
2023/05/23 23:03:13;;;;;;;39.13;23.55;;;16.20;99.90;;;;;;6196915;23;20020;-96
2023/05/23 23:05:40;;;;;;;34.63;22.85;;;16.20;99.90;;;;;;6198141;23;20001;-94
2023/05/23 23:08:06;;;;;;;37.80;23.40;;;16.20;99.90;;;;;;6198393;23;20012;-94
2023/05/23 23:10:33;;;;;;;32.75;21.85;;;16.10;99.90;;;;;;6200923;22;20372;-94
2023/05/23 23:13:00;;;;;;;39.15;21.63;;;16.00;99.90;;;;;;6253109;22;20515;-94
2023/05/23 23:19:01;;;;;;;37.72;22.85;;;16.00;99.90;;;;;;6244463;23;20020;-94
2023/05/23 23:21:27;;;;;;;34.05;21.42;;;15.90;99.90;;;;;;6222490;23;20063;-93
2023/05/23 23:43:17;;;;;;;30.40;20.23;;;16.10;99.90;;;;;;6147834;23;20033;-94
2023/05/23 23:47:08;;;;;;;31.23;18.50;;;16.10;99.90;;;;;;6087815;23;20018;-95
2023/05/23 23:57:43;;;;;;;27.55;19.33;;;15.80;99.90;;;;;;5947659;24;20009;-93
